Latest Weather Observations for Alice Springs Airport

IDD60801

Issued at 3:01 pm CST Sunday 20 August 2017 (issued every 30 minutes, with the page automatically refreshed every 10 minutes)

About weather observations | Map of weather stations | Latest weather observations for NT | Other Formats
Station Details ID: 015590 Name: ALICE SPRINGS AIRPORT Lat: -23.80 Lon: 133.89 Height: 546.0 m
Data from the previous 72 hours. | See also: Recent months at Alice Springs Airport
Date/Time
CST
Temp
°C
App
Temp
°C
Dew
Point
°C
Rel
Hum
%
Delta-T
°C
Wind Press
QNH
hPa
Press
MSL
hPa
Rain since
9am
mm
Dir  Spd
km/h
Gust
km/h
Spd
kts
Gust
kts
20/03:00pm 30.5 22.1 -2.1 12 15.5 NNW 32 39 17 21 1014.2 1013.3 0.0
20/02:30pm 30.5 23.3 -2.1 12 15.5 NNW 26 35 14 19 1014.7 1013.8 0.0
20/02:00pm 29.4 22.5 -2.9 12 15.0 NNW 24 37 13 20 1015.2 1014.4 0.0
20/01:30pm 29.3 21.6 -3.0 12 14.9 NNW 28 41 15 22 1015.8 1015.0 0.0
20/01:00pm 29.1 21.4 -3.2 12 14.9 NNW 28 37 15 20 1016.5 1015.6 0.0
20/12:30pm 26.7 18.8 -5.0 12 13.9 N 28 37 15 20 1017.1 1016.3 0.0
20/12:00pm 25.8 19.3 -5.7 12 13.5 N 20 35 11 19 1018.2 1017.3 0.0
20/11:30am 25.3 17.6 -6.1 12 13.3 N 26 35 14 19 1018.9 1018.1 0.0
20/11:00am 23.7 17.1 -7.4 12 12.7 N 20 30 11 16 1019.5 1018.7 0.0
20/10:30am 23.0 15.6 -6.9 13 12.2 N 24 32 13 17 1020.1 1019.3 0.0
20/10:00am 21.3 14.7 -7.2 14 11.4 N 20 30 11 16 1020.2 1019.4 0.0
20/09:30am 20.2 14.1 -7.2 15 10.8 N 17 24 9 13 1020.5 1019.7 0.0
20/09:00am 18.2 14.0 -7.2 17 9.8 NE 7 11 4 6 1020.7 1019.9 0.0
20/08:30am 16.0 11.1 -6.9 20 8.7 N 11 13 6 7 1020.8 1020.0 0.0
20/08:00am 15.2 9.9 -6.9 21 8.3 NNE 13 15 7 8 1020.8 1020.0 0.0
20/07:30am 13.9 9.7 -7.4 22 7.8 ESE 7 9 4 5 1020.6 1019.8 0.0
20/07:00am 11.1 7.9 -7.2 27 6.5 NE 2 9 1 5 1020.6 1019.8 0.0
20/06:30am 11.3 8.5 -7.0 27 6.5 CALM 0 6 0 3 1020.6 1019.8 0.0
20/06:00am 11.8 7.6 -7.6 25 6.9 NNE 7 9 4 5 1020.5 1019.7 0.0
20/05:30am 13.2 7.9 -7.4 23 7.5 ENE 13 15 7 8 1020.5 1019.7 0.0
20/05:00am 13.4 8.1 -7.3 23 7.6 NE 13 17 7 9 1020.4 1019.6 0.0
20/04:30am 13.4 8.0 -7.9 22 7.7 NE 13 17 7 9 1020.5 1019.7 0.0
20/04:00am 13.0 7.7 -7.6 23 7.4 NNE 13 15 7 8 1020.5 1019.7 0.0
20/03:30am 11.9 7.2 -9.7 21 7.3 ENE 9 11 5 6 1021.0 1020.2 0.0
20/03:00am 11.3 6.9 -9.6 22 7.0 NE 7 9 4 5 1021.1 1020.3 0.0
20/02:30am 10.9 6.5 -9.9 22 6.9 E 7 9 4 5 1021.3 1020.5 0.0
20/02:00am 10.1 5.7 -10.6 22 6.7 E 7 9 4 5 1021.5 1020.8 0.0
20/01:30am 12.0 7.2 -10.2 20 7.4 NE 9 11 5 6 1021.6 1020.9 0.0
20/01:00am 12.0 7.2 -10.2 20 7.5 ENE 9 11 5 6 1022.0 1021.2 0.0
20/12:30am 12.4 6.9 -9.9 20 7.6 E 13 17 7 9 1022.2 1021.4 0.0
20/12:00am 13.8 7.9 -10.1 18 8.2 E 15 17 8 9 1022.3 1021.5 0.0
 
Date/Time
CST
Temp
°C
App
Temp
°C
Dew
Point
°C
Rel
Hum
%
Delta-T
°C
Wind Press
QNH
hPa
Press
MSL
hPa
Rain since
9am
mm
Dir  Spd
km/h
Gust
km/h
Spd
kts
Gust
kts
19/11:30pm 15.1 9.2 -9.7 17 8.7 E 15 17 8 9 1022.7 1021.9 0.0
19/11:00pm 15.2 9.7 -9.7 17 8.8 E 13 17 7 9 1022.8 1022.0 0.0
19/10:30pm 15.1 9.7 -9.0 18 8.6 E 13 15 7 8 1022.9 1022.1 0.0
19/10:00pm 15.4 9.2 -9.5 17 8.9 E 17 19 9 10 1023.0 1022.3 0.0
19/09:30pm 16.4 10.5 -9.4 16 9.3 E 15 19 8 10 1023.0 1022.3 0.0
19/09:00pm 17.7 11.5 -9.2 15 9.9 E 17 20 9 11 1022.7 1021.9 0.0
19/08:30pm 18.4 12.6 -8.7 15 10.1 E 15 17 8 9 1022.5 1021.7 0.0
19/08:00pm 19.2 12.6 -8.9 14 10.6 E 19 22 10 12 1022.3 1021.5 0.0
19/07:30pm 19.6 13.4 -8.6 14 10.7 E 17 20 9 11 1021.9 1021.1 0.0
19/07:00pm 20.3 13.8 -8.0 14 11.0 E 19 26 10 14 1021.6 1020.9 0.0
19/06:30pm 21.1 14.5 -7.4 14 11.3 E 20 28 11 15 1021.3 1020.5 0.0
19/06:00pm 22.2 14.9 -6.5 14 11.7 E 24 30 13 16 1021.0 1020.2 0.0
19/05:30pm 23.1 15.8 -6.8 13 12.2 E 24 33 13 18 1020.7 1019.9 0.0
19/05:00pm 23.9 15.9 -6.2 13 12.6 E 28 33 15 18 1020.7 1019.9 0.0
19/04:30pm 24.3 17.0 -5.8 13 12.7 ESE 24 33 13 18 1020.6 1019.8 0.0
19/04:00pm 24.3 16.7 -5.8 13 12.7 ESE 26 33 14 18 1020.6 1019.8 0.0
19/03:30pm 24.4 17.5 -5.8 13 12.7 E 22 32 12 17 1020.8 1020.0 0.0
19/03:00pm 23.8 17.2 -7.3 12 12.7 E 20 33 11 18 1021.2 1020.4 0.0
19/02:30pm 24.0 17.1 -6.1 13 12.6 E 22 33 12 18 1021.5 1020.8 0.0
19/02:00pm 24.1 17.2 -6.0 13 12.6 E 22 32 12 17 1022.1 1021.3 0.0
19/01:30pm 22.6 15.2 -7.2 13 12.0 ESE 24 33 13 18 1022.7 1021.9 0.0
19/01:00pm 22.5 15.6 -6.3 14 11.8 ESE 22 32 12 17 1023.0 1022.3 0.0
19/12:30pm 21.2 14.6 -7.3 14 11.3 E 20 33 11 18 1023.9 1023.1 0.0
19/12:00pm 20.6 13.2 -6.9 15 10.9 E 24 35 13 19 1024.5 1023.7 0.0
19/11:30am 20.0 12.7 -6.5 16 10.5 E 24 32 13 17 1024.9 1024.2 0.0
19/11:00am 19.4 11.3 -7.0 16 10.4 E 28 39 15 21 1025.5 1024.8 0.0
19/10:30am 17.7 9.7 -6.2 19 9.3 E 28 37 15 20 1025.9 1025.1 0.0
19/10:00am 16.8 7.8 -6.3 20 9.0 E 33 43 18 23 1026.3 1025.6 0.0
19/09:30am 16.3 8.0 -5.4 22 8.5 E 30 35 16 19 1026.3 1025.6 0.0
19/09:00am 15.0 8.9 -3.8 27 7.5 E 19 32 10 17 1026.4 1025.7 0.0
19/08:30am 13.2 8.0 -3.1 32 6.5 E 15 20 8 11 1026.2 1025.5 0.0
19/08:00am 10.7 7.2 -1.4 43 4.9 ESE 7 9 4 5 1026.2 1025.5 0.0
19/07:30am 6.2 3.8 -3.2 51 3.4 CALM 0 0 0 0 1026.0 1025.2 0.0
19/07:00am 6.1 3.7 -3.0 52 3.4 CALM 0 0 0 0 1025.8 1025.0 0.0
19/06:30am 6.2 3.9 -2.7 53 3.3 CALM 0 0 0 0 1025.3 1024.6 0.0
19/06:00am 6.5 4.2 -2.1 54 3.3 CALM 0 0 0 0 1025.0 1024.3 0.0
19/05:30am 6.4 4.1 -2.5 53 3.3 CALM 0 0 0 0 1024.6 1023.9 0.0
19/05:00am 7.2 4.1 -2.5 50 3.7 SSW 4 7 2 4 1024.4 1023.6 0.0
19/04:30am 6.7 3.0 -3.2 49 3.7 S 7 7 4 4 1024.4 1023.6 0.0
19/04:00am 7.9 5.7 -1.9 50 3.8 CALM 0 0 0 0 1024.3 1023.5 0.0
19/03:30am 7.3 5.0 -2.4 50 3.7 CALM 0 0 0 0 1024.4 1023.6 0.0
19/03:00am 8.3 6.1 -1.5 50 3.8 CALM 0 0 0 0 1024.4 1023.6 0.0
19/02:30am 8.8 6.6 -1.3 49 4.0 CALM 0 6 0 3 1024.5 1023.7 0.0
19/02:00am 9.3 6.0 -1.1 48 4.2 E 6 7 3 4 1024.6 1023.9 0.0
19/01:30am 9.9 6.4 -1.5 45 4.5 ESE 7 9 4 5 1024.9 1024.2 0.0
19/01:00am 11.7 7.9 -1.1 41 5.3 SE 9 11 5 6 1024.9 1024.2 0.0
19/12:30am 12.5 8.3 -1.1 39 5.6 ESE 11 13 6 7 1024.9 1024.2 0.0
19/12:00am 13.9 9.3 -0.9 36 6.2 SE 13 15 7 8 1024.9 1024.2 0.0
 
Date/Time
CST
Temp
°C
App
Temp
°C
Dew
Point
°C
Rel
Hum
%
Delta-T
°C
Wind Press
QNH
hPa
Press
MSL
hPa
Rain since
9am
mm
Dir  Spd
km/h
Gust
km/h
Spd
kts
Gust
kts
18/11:30pm 14.9 10.0 -0.8 34 6.7 ESE 15 17 8 9 1025.0 1024.3 0.0
18/11:00pm 15.4 10.9 -0.4 34 6.9 ESE 13 17 7 9 1025.1 1024.4 0.0
18/10:30pm 16.0 11.1 -0.2 33 7.1 ESE 15 19 8 10 1025.1 1024.4 0.0
18/10:00pm 16.2 11.3 -0.5 32 7.3 ESE 15 19 8 10 1025.1 1024.4 0.0
18/09:30pm 16.3 11.4 -0.4 32 7.3 ESE 15 20 8 11 1025.1 1024.4 0.0
18/09:00pm 16.6 11.7 -0.6 31 7.5 SE 15 19 8 10 1024.8 1024.1 0.0
18/08:30pm 16.7 12.1 -0.9 30 7.6 SE 13 17 7 9 1024.5 1023.7 0.0
18/08:00pm 17.2 12.6 -1.4 28 8.0 SE 13 19 7 10 1024.1 1023.3 0.0
18/07:30pm 18.4 13.4 -1.4 26 8.6 SE 15 19 8 10 1023.6 1022.9 0.0
18/07:00pm 19.2 13.8 -1.3 25 9.0 SE 17 24 9 13 1023.1 1022.4 0.0
18/06:30pm 20.0 14.6 -1.2 24 9.4 SE 17 28 9 15 1022.7 1021.9 0.0
18/06:00pm 21.2 15.2 -1.3 22 10.0 SE 20 28 11 15 1022.4 1021.6 0.0
18/05:30pm 22.2 16.5 -1.1 21 10.5 ESE 19 30 10 16 1022.0 1021.2 0.0
18/05:00pm 22.9 16.7 -0.6 21 10.8 ESE 22 32 12 17 1021.6 1020.9 0.0
18/04:30pm 23.1 17.2 -1.1 20 11.0 SE 20 28 11 15 1021.6 1020.9 0.0
18/04:00pm 23.2 16.5 -1.0 20 11.1 ESE 24 35 13 19 1021.5 1020.8 0.0
18/03:30pm 22.9 16.3 -0.6 21 10.8 E 24 32 13 17 1021.6 1020.9 0.0
18/03:00pm 23.1 16.9 -0.4 21 10.8 E 22 33 12 18 1021.8 1021.0 0.0
18/02:30pm 23.2 16.1 -1.0 20 11.0 E 26 35 14 19 1021.9 1021.1 0.0
18/02:00pm 22.7 16.1 -0.7 21 10.7 E 24 33 13 18 1022.3 1021.5 0.0
18/01:30pm 22.2 15.5 -1.1 21 10.5 ESE 24 33 13 18 1022.6 1021.8 0.0
18/01:00pm 21.8 14.4 -0.8 22 10.3 E 28 41 15 22 1023.3 1022.6 0.0
18/12:30pm 21.3 15.0 -1.3 22 10.1 ESE 22 32 12 17 1023.9 1023.1 0.0
18/12:00pm 20.7 13.6 -1.1 23 9.7 ESE 26 37 14 20 1024.4 1023.6 0.0
18/11:30am 20.2 12.8 -1.0 24 9.4 E 28 39 15 21 1024.8 1024.1 0.0
18/11:00am 19.6 11.8 -0.9 25 9.1 ESE 30 44 16 24 1025.2 1024.5 0.0
18/10:30am 18.7 10.5 -1.2 26 8.7 E 32 39 17 21 1025.4 1024.7 0.0
18/10:00am 18.4 10.5 -1.4 26 8.6 E 30 37 16 20 1025.4 1024.7 0.0
18/09:30am 17.4 10.7 -1.3 28 8.1 ESE 24 33 13 18 1025.3 1024.6 0.0
18/09:00am 16.7 10.4 -0.9 30 7.6 ESE 22 33 12 18 1024.9 1024.2 0.0
18/08:30am 16.0 10.1 -1.1 31 7.3 ESE 20 33 11 18 1024.5 1023.7 0.0
18/08:01am 13.9 9.9 0.2 39 5.9 ESE 11 17 6 9 1024.0 1023.2 0.0
18/08:00am 13.9 9.9 0.2 39 5.9 ESE 11 17 6 9 1024.0 1023.2 0.0
18/07:40am 10.9 8.0 -0.9 44 4.8 ESE 4 7 2 4 1023.8 1023.0 0.0
18/07:30am 9.9 6.6 -1.2 46 4.5 E 6 7 3 4 1023.5 1022.8 0.0
18/07:00am 10.2 6.0 -0.9 46 4.5 ESE 11 13 6 7 1023.0 1022.3 0.0
18/06:30am 10.3 6.1 -0.8 46 4.5 SE 11 11 6 6 1022.5 1021.7 0.0
18/06:00am 10.8 6.6 -0.6 45 4.7 SE 11 15 6 8 1022.1 1021.3 0.0
18/05:30am 12.2 8.0 -0.6 41 5.3 SE 11 13 6 7 1021.5 1020.8 0.0
18/05:00am 13.2 9.0 -0.8 38 5.9 SE 11 15 6 8 1021.1 1020.3 0.0
18/04:30am 14.8 10.2 -0.9 34 6.7 ESE 13 15 7 8 1020.8 1020.0 0.0
18/04:00am 15.7 10.4 -0.5 33 7.0 ESE 17 24 9 13 1020.8 1020.0 0.0
18/03:30am 15.8 10.2 0.0 34 6.9 SE 19 26 10 14 1020.7 1019.9 0.0
18/03:00am 13.4 9.4 0.4 41 5.6 SE 11 20 6 11 1020.8 1020.0 0.0
18/02:30am 16.6 12.3 0.7 34 7.1 ESE 13 17 7 9 1020.6 1019.8 0.0
18/02:00am 17.4 12.5 1.8 35 7.2 ESE 17 22 9 12 1020.5 1019.7 0.0
18/01:30am 16.2 13.3 4.9 47 5.5 ESE 9 15 5 8 1020.7 1019.9 0.0
18/01:00am 14.5 12.2 5.8 56 4.3 E 7 11 4 6 1020.6 1019.8 0.0
18/12:30am 13.5 11.0 3.8 52 4.5 ESE 6 7 3 4 1020.4 1019.6 0.0
18/12:00am 14.3 12.5 3.7 49 5.0 ENE 2 6 1 3 1020.2 1019.4 0.0
 
Date/Time
CST
Temp
°C
App
Temp
°C
Dew
Point
°C
Rel
Hum
%
Delta-T
°C
Wind Press
QNH
hPa
Press
MSL
hPa
Rain since
9am
mm
Dir  Spd
km/h
Gust
km/h
Spd
kts
Gust
kts
17/11:30pm 16.1 13.7 5.1 48 5.4 E 7 9 4 5 1020.0 1019.2 0.0
17/11:00pm 17.2 14.2 5.8 47 5.7 SE 11 13 6 7 1020.0 1019.2 0.0
17/10:30pm 17.0 13.6 5.9 48 5.5 SE 13 15 7 8 1019.6 1018.8 0.0
17/10:00pm 16.6 12.9 4.6 45 5.8 SSE 13 15 7 8 1019.6 1018.8 0.0
17/09:30pm 17.8 14.1 4.7 42 6.4 S 13 13 7 7 1019.4 1018.6 0.0
17/09:00pm 18.4 15.0 4.2 39 6.9 S 11 13 6 7 1019.2 1018.4 0.0
17/08:30pm 19.1 16.1 4.1 37 7.3 S 9 11 5 6 1018.8 1018.0 0.0
17/08:00pm 20.1 16.7 4.2 35 7.9 S 11 11 6 6 1018.2 1017.3 0.0
17/07:30pm 21.7 18.0 4.3 32 8.7 SSE 13 17 7 9 1017.6 1016.8 0.0
17/07:00pm 23.5 19.9 4.9 30 9.5 S 13 17 7 9 1017.0 1016.2 0.0
17/06:30pm 24.8 20.5 5.1 28 10.2 S 17 26 9 14 1016.6 1015.7 0.0
17/06:00pm 25.9 21.0 4.9 26 10.9 S 20 28 11 15 1016.2 1015.3 0.0
17/05:30pm 27.2 22.3 4.9 24 11.7 SSE 20 32 11 17 1015.7 1014.9 0.0
17/05:00pm 27.7 22.9 4.7 23 12.0 S 19 28 10 15 1015.3 1014.5 0.0
17/04:30pm 28.3 23.6 5.2 23 12.2 SSE 19 28 10 15 1015.0 1014.1 0.0
17/04:00pm 28.3 23.6 5.2 23 12.2 S 19 32 10 17 1014.9 1014.0 0.0
17/03:30pm 28.4 23.2 5.3 23 12.3 S 22 30 12 16 1014.9 1014.0 0.0

Other Formats:

Comma delimited format used in spreadsheet applications
http://www.bom.gov.au/fwo/IDD60801/IDD60801.94326.axf

JavaScript Object Notation format (JSON) in row-major order
http://www.bom.gov.au/fwo/IDD60801/IDD60801.94326.json